Relevés horaires Beauvechain (Belgique)


Relevés horaires à Beauvechain - Samedi 01 Août 2020
Heure UTC1 Température [°C] Vent [km/h] Hum. [%] Pres.4 [hPa] Visi. [Km] Nébu. [octa] Préc.5 [mm] Cond.
2m. Res. Ros. Dir.2 Vit. Moy. Raf.3
23:00 18.3 18.3 13.1 NNO 1.9 -- 3.7 72 1016.2(0.3/3h) 20 -- -- --
22:00 18.7 18.7 12.9 NNO 1.9 -- 1.9 69 1016.2(0.7/3h) 20 -- -- --
21:00 19.5 19.5 12.8 NNO 1.9 -- 13.0 65 1016(1.0/3h) 20 -- -- --
20:00 20.1 20.1 13.0 NNO 3.7 -- 13.0 64 1015.8(1.0/3h) 20 -- -- --
19:00 22.0 22.0 13.5 NNO 5.6 -- 13.0 59 1015.2(0.5/3h) 20 -- -- --
18:00 24.3 24.3 17.0 NNO 5.6 -- 13.0 64 1014.7(0.1/3h) 20 -- -- --
17:00 24.9 24.9 16.9 NO 7.4 -- 11.1 61 1014.6(-0.2/3h) 20 -- -- --
16:00 26.3 26.3 15.7 NO 5.6 -- 13.0 52 1014.6(-0.5/3h) 20 -- -- --
15:00 26.8 26.8 16.4 O 7.4 -- 13.0 53 1014.3(-0.8/3h) 20 -- -- --
14:00 26.5 26.5 16.7 O 7.4 -- 13.0 55 1014.7(-0.8/3h) 20 -- -- --
13:00 26.2 26.2 17.6 ONO 7.4 -- 13.0 59 1015.1(-0.4/3h) 20 -- -- --
12:00 24.4 24.4 17.6 ONO 7.4 -- 13.0 66 1015.2(0.0/3h) 20 -- -- --
11:00 24.5 24.5 17.7 OSO 5.6 -- 13.0 66 1015.7(0.2/3h) 20 -- -- --
10:00 24.0 24.0 17.3 O 3.7 -- 9.3 66 1015.7(1.5/3h) 20 -- -- --
09:00 23.3 23.3 16.9 NNO 1.9 -- 11.1 67 1015.5(1.6/3h) 19 -- -- --
08:00 21.8 21.8 16.9 SSO 3.7 -- 11.1 74 1015.6(2.0/3h) 19 -- -- --
07:00 20.3 20.3 16.4 O 5.6 -- 13.0 78 1014.2(1.1/3h) 20 -- -- --
06:00 20.0 20.0 15.6 O 7.4 -- 13.0 76 1014(0.5/3h) 20 -- 0.1/12h
NA
05:00 20.7 20.7 15.5 OSO 5.6 -- 13.0 72 1013.6(0.0/3h) 20 -- -- --
04:00 21.6 21.6 15.3 OSO 5.6 -- 13.0 67 1013.1(-0.2/3h) 20 -- -- --
03:00 22.2 22.2 16.6 SO 9.3 -- 11.1 71 1013.3(0.4/3h) 20 -- -- NA
02:00 23.2 23.2 17.3 SSO 7.4 -- 9.3 69 1013.3(0.9/3h) 20 -- -- NA
01:00 24.7 24.7 16.6 SO 5.6 -- 9.3 61 1013.1(1.1/3h) 17 -- -- Il y a de la pluie faible et continue à la station au moment de l'observation
00:00 25.7 25.7 15.1 OSO 5.6 -- 14.8 52 1012.7(1.0/3h) 20 -- -- --

1 Coordinated Universal Time. Actuellement il est 03:00 locale et 01:00 UTC.

2 Le vent souffle depuis la direction indiquée vers la direction oposée.

3 Les rafales max. sont disponible 40 min après l'heure du relevé.

4 Pour les stations d'altitude (plus de 600m) le géopotentiel du niveau le plus proche de la pression obligatoire est indiqué.

5 Les stations disposant d'un diffuseur peuvent indiquer "trace". Cela signifie que des précipitations ont touchés le sol mais que la quantité est inférieure à 0.1 mm.

Récapitulatif de la journée
Température [°C] Vent [km/h] Ensoleillement4 [h] Precipitations totale5 [mm] Pression [Hpa]
Min1 Max.2 Moy.3 Max. Min Max.
20.0 28.1 0 14.8 0 h 0 min 0 1012.7 1016.2

1 Température minimale relevée entre 18:00 UTC la veille et 18:00 UTC le jour donné.

2 Température maximale relevée entre 06:00 UTC le jour donné et 06:00 UTC le lendemain.

3 Vent moyen de la journée basé sur les relevés horaires.

4 Ensoleillement en heures relevé entre 06:00 UTC la veille et 06:00 UTC le jour donné.

5 Précipitations totales tombées entre 06:00 UTC la jour donné et 06:00 UTC le lendemain.

Graphiques horaires